Time;durP1;ratioP1;P1;durP2;ratioP2;P2;SDS_P1;SDS_P2;PMS_P1;PMS_P2;Temp;Humidity;BMP_temperature;BMP_pressure;BME280_temperature;BME280_humidity;BME280_pressure;Samples;Min_cycle;Max_cycle;Signal;HPM_P1;HPM_P2
2022/10/12 00:00:09;;;;;;;;;4.40;4.00;;;;;5.58;72.48;100824.28;5099185;28;8826;-62
2022/10/12 00:02:37;;;;;;;;;4.00;4.00;;;;;5.58;73.02;100824.28;5099084;28;8842;-60
2022/10/12 00:05:04;;;;;;;;;3.00;3.00;;;;;5.58;72.60;100826.06;5098769;28;8853;-61
2022/10/12 00:07:33;;;;;;;;;3.20;3.20;;;;;5.56;72.47;100825.28;5098524;28;8911;-61
2022/10/12 00:10:00;;;;;;;;;4.80;4.80;;;;;5.54;72.81;100829.78;5099092;28;9525;-61
2022/10/12 00:12:28;;;;;;;;;3.40;3.40;;;;;5.51;72.72;100824.59;5099078;28;8814;-62
2022/10/12 00:14:56;;;;;;;;;2.60;2.60;;;;;5.47;72.54;100830.97;5099003;28;8834;-61
2022/10/12 00:17:23;;;;;;;;;2.20;1.00;;;;;5.42;72.59;100822.38;5098719;28;8845;-60
2022/10/12 00:19:51;;;;;;;;;1.00;1.00;;;;;5.37;72.85;100819.94;5098530;28;8895;-61
2022/10/12 00:22:18;;;;;;;;;3.60;3.60;;;;;5.32;72.77;100816.66;5098351;28;9576;-62
2022/10/12 00:24:46;;;;;;;;;4.00;3.00;;;;;5.31;72.89;100820.22;5097743;28;8898;-61
2022/10/12 00:27:14;;;;;;;;;3.40;3.40;;;;;5.31;73.00;100824.66;5097273;28;8837;-60
2022/10/12 00:29:42;;;;;;;;;3.00;3.00;;;;;5.29;73.04;100822.06;5097981;28;8825;-61
2022/10/12 00:32:10;;;;;;;;;3.00;1.00;;;;;5.31;72.78;100814.94;5097912;28;8821;-61
2022/10/12 00:34:37;;;;;;;;;2.60;2.20;;;;;5.31;73.12;100816.75;5097861;28;8894;-61
2022/10/12 00:37:05;;;;;;;;;1.80;1.80;;;;;5.28;72.63;100816.84;5098687;28;9551;-62
2022/10/12 00:39:33;;;;;;;;;3.40;3.40;;;;;5.25;72.69;100815.19;5098204;28;8911;-61
2022/10/12 00:42:00;;;;;;;;;1.00;1.00;;;;;5.23;73.11;100817.06;5098349;28;9515;-61
2022/10/12 00:44:28;;;;;;;;;4.00;1.00;;;;;5.21;73.30;100816.28;5097302;28;8833;-61
2022/10/12 00:46:55;;;;;;;;;3.60;3.60;;;;;5.21;73.43;100816.28;5097641;28;8838;-61
2022/10/12 00:49:23;;;;;;;;;3.00;3.00;;;;;5.21;72.74;100812.75;5096983;28;8818;-61
2022/10/12 00:51:51;;;;;;;;;4.00;4.00;;;;;5.22;73.44;100819.75;5097773;28;9507;-61
2022/10/12 00:54:19;;;;;;;;;5.60;4.00;;;;;5.24;73.00;100818.78;5097716;28;8818;-61
2022/10/12 00:56:46;;;;;;;;;5.20;2.20;;;;;5.27;73.08;100820.41;5097901;28;8818;-62
2022/10/12 00:59:14;;;;;;;;;6.60;4.40;;;;;5.28;72.63;100815.09;5097858;28;8830;-61
2022/10/12 01:01:42;;;;;;;;;9.00;9.00;;;;;5.30;73.15;100817.63;5097502;28;8889;-61
2022/10/12 01:04:10;;;;;;;;;6.40;6.00;;;;;5.32;73.03;100829.00;5097055;28;8826;-61
2022/10/12 01:06:37;;;;;;;;;6.00;6.00;;;;;5.33;72.67;100822.81;5097739;28;8825;-61
2022/10/12 01:09:05;;;;;;;;;6.20;5.60;;;;;5.32;73.04;100816.66;5097448;28;8830;-61
2022/10/12 01:11:32;;;;;;;;;3.80;3.80;;;;;5.31;72.83;100817.56;5097602;28;8898;-61
2022/10/12 01:14:02;;;;;;;;;9.00;7.00;;;;;5.32;72.94;100818.44;5097831;28;8846;-61
2022/10/12 01:16:30;;;;;;;;;6.00;6.00;;;;;5.30;72.83;100818.50;5097956;28;8811;-61
2022/10/12 01:18:57;;;;;;;;;6.20;5.20;;;;;5.30;72.20;100823.78;5097273;28;8810;-61
2022/10/12 01:21:25;;;;;;;;;4.40;4.40;;;;;5.29;72.92;100821.19;5097845;28;8837;-61
2022/10/12 01:23:52;;;;;;;;;5.60;4.00;;;;;5.27;72.67;100812.50;5097537;28;8818;-61
2022/10/12 01:26:20;;;;;;;;;3.00;3.00;;;;;5.25;72.94;100809.91;5097563;28;9369;-61
2022/10/12 01:28:48;;;;;;;;;6.00;5.60;;;;;5.24;73.11;100812.66;5097526;28;8830;-61
2022/10/12 01:31:16;;;;;;;;;6.20;6.00;;;;;5.25;72.98;100814.38;5096712;28;8828;-61
2022/10/12 01:33:43;;;;;;;;;6.00;5.60;;;;;5.23;73.00;100797.75;5097335;28;8822;-61
2022/10/12 01:36:11;;;;;;;;;4.80;4.00;;;;;5.21;72.87;100796.94;5097553;28;8826;-62
2022/10/12 01:38:39;;;;;;;;;3.80;3.20;;;;;5.19;72.64;100793.50;5097427;28;8914;-63
2022/10/12 01:41:07;;;;;;;;;4.80;4.80;;;;;5.15;72.76;100800.69;5097480;28;8886;-63
2022/10/12 01:43:35;;;;;;;;;2.20;1.80;;;;;5.14;73.38;100791.06;5097608;28;8887;-61
2022/10/12 01:46:02;;;;;;;;;3.40;3.40;;;;;5.12;72.74;100785.00;5097202;28;9002;-61
2022/10/12 01:48:30;;;;;;;;;3.60;3.60;;;;;5.11;73.53;100785.06;5096788;28;9518;-64
2022/10/12 01:50:57;;;;;;;;;3.00;3.00;;;;;5.09;72.78;100793.03;5097093;28;8826;-61
2022/10/12 01:53:25;;;;;;;;;4.00;4.00;;;;;5.06;73.29;100787.03;5096755;28;8818;-62
2022/10/12 01:55:53;;;;;;;;;3.00;3.00;;;;;5.03;73.04;100782.75;5097315;28;8898;-64
2022/10/12 01:58:21;;;;;;;;;3.00;1.80;;;;;5.03;73.29;100781.91;5096947;28;8838;-61
2022/10/12 02:00:48;;;;;;;;;3.20;3.20;;;;;5.02;73.30;100780.19;5096833;28;8910;-62
2022/10/12 02:03:16;;;;;;;;;3.40;3.20;;;;;5.00;73.24;100780.25;5097223;28;8834;-62
2022/10/12 02:05:44;;;;;;;;;4.00;4.00;;;;;4.99;73.74;100783.81;5096807;28;8926;-61
2022/10/12 02:08:11;;;;;;;;;5.60;3.00;;;;;4.97;72.76;100798.00;5097123;28;8830;-60
2022/10/12 02:10:39;;;;;;;;;3.00;3.00;;;;;4.94;73.66;100788.44;5097051;28;8818;-63
2022/10/12 02:13:07;;;;;;;;;1.00;1.00;;;;;4.91;73.45;100785.94;5096703;28;8906;-63
2022/10/12 02:15:34;;;;;;;;;1.00;1.00;;;;;4.86;73.54;100789.72;5095444;28;8895;-62
2022/10/12 02:18:02;;;;;;;;;1.00;1.00;;;;;4.79;73.56;100781.19;5096340;28;8817;-62
2022/10/12 02:20:30;;;;;;;;;2.60;2.60;;;;;4.76;73.30;100778.69;5096519;28;8826;-63
2022/10/12 02:22:58;;;;;;;;;3.00;3.00;;;;;4.72;73.19;100774.44;5096335;28;9464;-62
2022/10/12 02:25:25;;;;;;;;;1.00;1.00;;;;;4.70;73.60;100770.16;5095795;28;8834;-63
2022/10/12 02:27:53;;;;;;;;;3.00;3.00;;;;;4.67;73.54;100772.94;5096030;28;8818;-63
2022/10/12 02:30:21;;;;;;;;;4.00;3.00;;;;;4.64;74.01;100765.16;5096233;28;8810;-63
2022/10/12 02:32:48;;;;;;;;;4.00;3.60;;;;;4.61;73.55;100763.50;5096180;28;8822;-62
2022/10/12 02:35:16;;;;;;;;;3.80;3.60;;;;;4.58;74.00;100755.72;5096081;28;8919;-63
2022/10/12 02:37:44;;;;;;;;;2.20;2.20;;;;;4.56;73.77;100756.72;5095950;28;8814;-63
2022/10/12 02:40:11;;;;;;;;;0.20;0.20;;;;;4.54;73.16;100753.28;5096466;28;8915;-61
2022/10/12 02:42:39;;;;;;;;;2.60;2.60;;;;;4.49;73.92;100758.75;5096076;28;8822;-61
2022/10/12 02:45:27;;;;;;;;;3.00;3.00;;;;;4.46;74.01;100756.25;5095718;28;8842;-63
2022/10/12 02:47:54;;;;;;;;;2.20;2.20;;;;;4.44;73.60;100751.94;5095848;28;8806;-60
2022/10/12 02:50:22;;;;;;;;;2.60;2.60;;;;;4.42;73.80;100759.06;5096368;28;8887;-63
2022/10/12 02:52:50;;;;;;;;;4.00;3.00;;;;;4.42;73.89;100753.81;5096207;28;8821;-61
2022/10/12 02:55:18;;;;;;;;;3.80;3.20;;;;;4.41;73.91;100747.66;5096157;28;8898;-63
2022/10/12 02:57:45;;;;;;;;;0.00;0.00;;;;;4.42;73.94;100744.09;5096143;28;8926;-62
2022/10/12 03:00:13;;;;;;;;;2.60;2.60;;;;;4.42;73.66;100744.09;5095948;28;8936;-63
2022/10/12 03:02:42;;;;;;;;;3.20;3.20;;;;;4.44;74.06;100747.53;5095652;28;8818;-61
2022/10/12 03:05:10;;;;;;;;;3.60;3.00;;;;;4.45;73.48;100746.63;5095641;28;8826;-60
2022/10/12 03:07:38;;;;;;;;;2.20;2.20;;;;;4.46;73.63;100742.19;5095859;28;8821;-60
2022/10/12 03:10:06;;;;;;;;;5.20;3.40;;;;;4.46;73.50;100737.78;5096050;28;8833;-63
2022/10/12 03:12:34;;;;;;;;;4.40;4.40;;;;;4.46;73.91;100737.78;5095944;28;8912;-61
2022/10/12 03:15:02;;;;;;;;;3.00;3.00;;;;;4.45;73.53;100735.19;5096402;28;8818;-61
2022/10/12 03:17:30;;;;;;;;;3.40;3.40;;;;;4.43;73.89;100729.16;5095875;28;8841;-61
2022/10/12 03:19:57;;;;;;;;;3.40;3.40;;;;;4.42;73.46;100724.81;5095674;28;8907;-61
2022/10/12 03:22:25;;;;;;;;;3.40;3.40;;;;;4.44;73.28;100725.59;5095410;28;8841;-60
2022/10/12 03:24:53;;;;;;;;;3.60;3.00;;;;;4.45;73.08;100722.03;5094897;28;8907;-63
2022/10/12 03:27:21;;;;;;;;;3.40;3.00;;;;;4.46;72.91;100727.25;5098462;28;8818;-61
2022/10/12 03:29:49;;;;;;;;;3.60;3.00;;;;;4.53;73.55;100722.56;5099269;28;8829;-61
2022/10/12 03:32:17;;;;;;;;;4.00;3.20;;;;;4.54;73.39;100724.25;5098990;28;8810;-62
2022/10/12 03:34:44;;;;;;;;;3.00;3.00;;;;;4.52;73.17;100720.84;5099129;28;8810;-62
2022/10/12 03:37:12;;;;;;;;;5.20;3.60;;;;;4.49;73.61;100726.25;5099442;28;8826;-63
2022/10/12 03:39:40;;;;;;;;;4.00;4.00;;;;;4.45;73.36;100722.03;5099760;28;8837;-63
2022/10/12 03:42:08;;;;;;;;;3.00;3.00;;;;;4.42;72.94;100723.00;5099369;28;8826;-61
2022/10/12 03:44:36;;;;;;;;;3.00;1.00;;;;;4.39;73.09;100715.25;5099190;28;8838;-61
2022/10/12 03:47:03;;;;;;;;;3.00;3.00;;;;;4.36;73.69;100722.41;5098676;28;8946;-63
2022/10/12 03:49:31;;;;;;;;;1.00;1.00;;;;;4.32;74.19;100718.19;5099187;28;8926;-61
2022/10/12 03:51:58;;;;;;;;;1.00;1.00;;;;;4.29;73.26;100718.31;5098458;28;8834;-60
2022/10/12 03:54:26;;;;;;;;;4.00;3.00;;;;;4.27;74.24;100714.91;5099245;28;8822;-63
2022/10/12 03:56:54;;;;;;;;;2.20;1.00;;;;;4.26;73.51;100719.31;5099345;28;8826;-60
2022/10/12 03:59:21;;;;;;;;;3.00;3.00;;;;;4.27;73.74;100714.91;5098873;28;8826;-60
2022/10/12 04:01:49;;;;;;;;;4.00;4.00;;;;;4.25;73.35;100719.38;5098327;28;8830;-61
2022/10/12 04:04:17;;;;;;;;;4.00;4.00;;;;;4.24;73.76;100715.00;5098570;28;8833;-62
2022/10/12 04:06:45;;;;;;;;;1.40;1.40;;;;;4.21;73.36;100709.88;5098330;28;8822;-63
2022/10/12 04:09:12;;;;;;;;;3.60;3.20;;;;;4.20;74.04;100713.44;5098365;28;8826;-63
2022/10/12 04:11:40;;;;;;;;;1.80;1.80;;;;;4.20;74.13;100703.72;5098465;28;8838;-62
2022/10/12 04:14:08;;;;;;;;;3.80;3.80;;;;;4.18;73.50;100700.31;5098598;28;8833;-62
2022/10/12 04:16:35;;;;;;;;;3.20;3.20;;;;;4.19;74.01;100703.81;5098086;28;8934;-63
2022/10/12 04:19:03;;;;;;;;;4.80;3.40;;;;;4.18;73.61;100710.03;5097216;28;8810;-60
2022/10/12 04:21:31;;;;;;;;;3.60;3.60;;;;;4.19;73.24;100701.19;5098229;28;8867;-63
2022/10/12 04:23:58;;;;;;;;;3.00;3.00;;;;;4.20;73.38;100708.16;5098129;28;8906;-62
2022/10/12 04:26:26;;;;;;;;;3.40;3.00;;;;;4.21;73.43;100705.47;5098209;28;8850;-61
2022/10/12 04:28:56;;;;;;;;;1.80;1.80;;;;;4.21;73.39;100699.34;5098147;28;8918;-62
2022/10/12 04:31:23;;;;;;;;;5.60;5.20;;;;;4.20;73.43;100700.25;5097475;28;8818;-62
2022/10/12 04:33:55;;;;;;;;;3.40;3.00;;;;;4.19;73.72;100696.75;5098361;28;9595;-61
2022/10/12 04:36:22;;;;;;;;;2.60;2.60;;;;;4.17;73.83;100692.47;5097774;28;8834;-63
2022/10/12 04:38:50;;;;;;;;;3.60;3.60;;;;;4.16;73.98;100689.00;5096945;28;8821;-62
2022/10/12 04:41:18;;;;;;;;;1.00;1.00;;;;;4.16;73.30;100696.91;5097639;28;8923;-63
2022/10/12 04:43:46;;;;;;;;;4.00;4.00;;;;;4.17;73.35;100687.19;5098544;28;8869;-61
2022/10/12 04:46:14;;;;;;;;;3.80;3.20;;;;;4.22;73.78;100690.50;5097606;28;9527;-63
2022/10/12 04:48:41;;;;;;;;;3.40;3.40;;;;;4.23;73.61;100692.22;5097282;28;8867;-63
2022/10/12 04:51:09;;;;;;;;;2.20;2.20;;;;;4.26;73.51;100698.22;5097631;28;8899;-62
2022/10/12 04:53:37;;;;;;;;;3.60;3.40;;;;;4.26;73.59;100695.56;5097522;28;8838;-62
2022/10/12 04:56:05;;;;;;;;;3.60;2.60;;;;;4.27;73.33;100701.72;5097850;28;8911;-62
2022/10/12 04:58:32;;;;;;;;;4.00;3.60;;;;;4.24;73.48;100689.53;5097530;28;8818;-63
2022/10/12 05:01:00;;;;;;;;;3.60;3.60;;;;;4.23;73.61;100686.94;5097572;28;8830;-61
2022/10/12 05:03:28;;;;;;;;;3.00;1.00;;;;;4.23;73.71;100687.81;5096926;28;8853;-63
2022/10/12 05:05:56;;;;;;;;;1.80;1.80;;;;;4.23;73.65;100685.19;5076631;28;8913;-61
2022/10/12 05:08:24;;;;;;;;;4.60;3.80;;;;;4.24;73.79;100686.00;5076810;28;8874;-63
2022/10/12 05:10:52;;;;;;;;;4.20;3.00;;;;;4.25;73.14;100685.13;5076805;28;8828;-63
2022/10/12 05:13:20;;;;;;;;;3.40;3.40;;;;;4.26;73.35;100692.09;5076946;28;9529;-61
2022/10/12 05:15:47;;;;;;;;;3.00;3.00;;;;;4.30;73.30;100684.00;5076268;28;8832;-64
2022/10/12 05:18:15;;;;;;;;;3.00;3.00;;;;;4.35;73.39;100689.91;5076551;28;8832;-63
2022/10/12 05:20:43;;;;;;;;;4.80;3.00;;;;;4.37;72.90;100685.44;5096343;28;8829;-63
2022/10/12 05:23:11;;;;;;;;;4.40;3.60;;;;;4.40;72.92;100687.09;5096776;28;8842;-62
2022/10/12 05:25:38;;;;;;;;;3.00;3.00;;;;;4.40;72.97;100687.09;5096449;28;8825;-61
2022/10/12 05:28:06;;;;;;;;;1.40;1.40;;;;;4.41;73.08;100687.03;5095671;28;8903;-62
2022/10/12 05:30:34;;;;;;;;;4.40;4.40;;;;;4.44;73.31;100680.75;5096047;28;8814;-63
2022/10/12 05:33:02;;;;;;;;;4.00;4.00;;;;;4.44;73.51;100675.50;5095974;28;8867;-61
2022/10/12 05:35:30;;;;;;;;;3.00;3.00;;;;;4.44;73.43;100686.03;5096041;28;8903;-62
2022/10/12 05:37:57;;;;;;;;;2.60;2.60;;;;;4.44;73.26;100686.03;5096022;28;8826;-61
2022/10/12 05:40:25;;;;;;;;;0.40;0.40;;;;;4.44;72.97;100675.50;5096545;28;8822;-61
2022/10/12 05:42:53;;;;;;;;;0.00;0.00;;;;;4.43;73.02;100679.06;5097073;28;8849;-63
2022/10/12 05:45:21;;;;;;;;;1.40;1.00;;;;;4.44;73.07;100683.41;5096153;28;8846;-62
2022/10/12 05:47:49;;;;;;;;;3.40;2.80;;;;;4.45;72.55;100677.19;5095569;28;8833;-63
2022/10/12 05:50:16;;;;;;;;;0.00;0.00;;;;;4.46;72.93;100685.06;5095215;28;8848;-64
2022/10/12 05:52:44;;;;;;;;;3.40;3.20;;;;;4.45;72.70;100680.72;5095105;28;8826;-62
2022/10/12 05:55:11;;;;;;;;;3.00;3.00;;;;;4.46;72.71;100679.78;5095535;28;8918;-62
2022/10/12 05:57:40;;;;;;;;;1.00;0.80;;;;;4.47;73.18;100677.97;5095350;28;8846;-62
2022/10/12 06:00:08;;;;;;;;;0.00;0.00;;;;;4.49;73.19;100684.06;5096176;28;9515;-61
2022/10/12 06:02:35;;;;;;;;;1.00;1.00;;;;;4.50;73.32;100686.63;5095301;28;8826;-61
2022/10/12 06:05:04;;;;;;;;;2.40;1.80;;;;;4.52;72.58;100692.72;5095558;28;8864;-61
2022/10/12 06:07:31;;;;;;;;;3.00;3.00;;;;;4.52;73.35;100686.56;5095893;28;8892;-62
2022/10/12 06:10:00;;;;;;;;;4.00;3.00;;;;;4.53;72.66;100689.16;5095094;28;8845;-63
2022/10/12 06:12:27;;;;;;;;;4.40;4.00;;;;;4.56;73.07;100688.16;5095384;28;8833;-62
2022/10/12 06:14:55;;;;;;;;;1.80;1.40;;;;;4.56;72.53;100693.44;5095402;28;9483;-62
2022/10/12 06:17:23;;;;;;;;;3.80;3.80;;;;;4.57;72.25;100700.41;5095300;28;8842;-61
2022/10/12 06:19:50;;;;;;;;;4.40;3.80;;;;;4.56;72.84;100690.78;5095095;28;8835;-61
2022/10/12 06:22:18;;;;;;;;;6.00;6.00;;;;;4.57;72.63;100689.88;5095100;28;8902;-63
2022/10/12 06:24:46;;;;;;;;;6.40;4.00;;;;;4.55;72.66;100694.31;5094599;28;8928;-62
2022/10/12 06:27:16;;;;;;;;;3.00;1.80;;;;;4.55;72.86;100694.31;5094979;28;8833;-63
2022/10/12 06:29:44;;;;;;;;;1.40;1.00;;;;;4.57;73.08;100700.41;5094995;28;8903;-61
2022/10/12 06:32:12;;;;;;;;;4.20;4.20;;;;;4.59;72.81;100701.19;5094600;28;8818;-62
2022/10/12 06:34:40;;;;;;;;;1.80;1.80;;;;;4.59;72.79;100702.06;5095406;28;9516;-61
2022/10/12 06:37:07;;;;;;;;;4.00;3.20;;;;;4.61;72.92;100705.50;5095359;28;8850;-62
2022/10/12 06:39:56;;;;;;;;;6.00;5.60;;;;;4.62;73.37;100706.31;5095259;28;8930;-61
2022/10/12 06:42:25;;;;;;;;;6.00;6.00;;;;;4.63;72.45;100708.91;5095281;28;8831;-61
2022/10/12 06:44:53;;;;;;;;;6.00;4.80;;;;;4.66;72.09;100705.28;5094364;28;8830;-60
2022/10/12 06:47:20;;;;;;;;;6.60;6.00;;;;;4.67;72.66;100702.59;5093953;28;9511;-62
2022/10/12 06:49:48;;;;;;;;;5.60;4.00;;;;;4.71;72.47;100704.16;5093594;28;8898;-62
2022/10/12 06:52:16;;;;;;;;;8.20;5.20;;;;;4.74;72.49;100705.81;5093552;28;8822;-62
2022/10/12 06:54:44;;;;;;;;;3.80;3.80;;;;;4.76;72.97;100704.81;5093537;28;8852;-61
2022/10/12 06:57:12;;;;;;;;;5.60;3.80;;;;;4.81;73.14;100704.63;5094193;28;8847;-61
2022/10/12 06:59:40;;;;;;;;;3.40;3.40;;;;;4.85;72.10;100704.41;5094241;28;8895;-61
2022/10/12 07:02:08;;;;;;;;;4.00;3.60;;;;;4.92;72.71;100694.44;5094147;28;8881;-63
2022/10/12 07:04:36;;;;;;;;;1.00;1.00;;;;;5.00;72.42;100702.84;5094630;28;8969;-63
2022/10/12 07:07:04;;;;;;;;;3.20;3.20;;;;;5.07;72.35;100699.03;5094068;28;8844;-62
2022/10/12 07:09:32;;;;;;;;;6.60;6.20;;;;;5.21;71.89;100694.84;5094571;28;8868;-61
2022/10/12 07:12:00;;;;;;;;;4.00;4.00;;;;;5.35;71.34;100694.19;5095258;28;8826;-61
2022/10/12 07:14:28;;;;;;;;;3.60;3.60;;;;;5.48;71.19;100696.19;5094858;28;8850;-61
2022/10/12 07:16:56;;;;;;;;;5.20;4.00;;;;;5.63;70.90;100695.47;5094646;28;8868;-63
2022/10/12 07:19:24;;;;;;;;;4.00;4.00;;;;;5.79;71.15;100690.31;5094008;28;8822;-61
2022/10/12 07:21:52;;;;;;;;;6.60;6.00;;;;;5.93;70.79;100682.63;5093812;28;8868;-62
2022/10/12 07:24:20;;;;;;;;;4.40;4.40;;;;;6.03;70.63;100692.66;5094108;28;8846;-61
2022/10/12 07:26:48;;;;;;;;;3.60;3.60;;;;;6.11;70.81;100695.78;5093769;28;8864;-61
2022/10/12 07:29:16;;;;;;;;;2.60;1.40;;;;;6.21;70.53;100685.63;5093254;28;8837;-61
2022/10/12 07:31:44;;;;;;;;;6.40;6.00;;;;;6.44;69.79;100680.84;5094202;28;9526;-61
2022/10/12 07:34:18;;;;;;;;;6.00;4.40;;;;;6.74;69.93;100675.78;5093622;28;8912;-62
2022/10/12 07:36:46;;;;;;;;;12.40;9.60;;;;;6.99;69.19;100681.50;5093108;28;8830;-60
2022/10/12 07:39:25;;;;;;;;;7.00;7.00;;;;;7.24;69.21;100682.75;5092091;28;8833;-63
2022/10/12 07:41:53;;;;;;;;;11.00;7.00;;;;;7.40;69.12;100686.25;5091992;28;8833;-61
2022/10/12 07:44:23;;;;;;;;;6.00;6.00;;;;;7.56;68.67;100673.88;5092022;28;9564;-60
2022/10/12 07:46:51;;;;;;;;;7.40;6.40;;;;;7.70;68.43;100669.50;5092259;28;8880;-61
2022/10/12 07:49:19;;;;;;;;;9.00;9.00;;;;;7.81;68.42;100671.53;5091942;28;8891;-62
2022/10/12 07:51:46;;;;;;;;;6.00;6.00;;;;;7.84;68.75;100674.03;5092405;28;8842;-63
2022/10/12 07:54:14;;;;;;;;;6.00;6.00;;;;;7.89;68.33;100672.84;5092967;28;8826;-61
2022/10/12 07:56:48;;;;;;;;;7.80;6.60;;;;;8.01;67.93;100671.28;5093108;28;8849;-62
2022/10/12 07:59:16;;;;;;;;;3.00;3.00;;;;;8.13;68.34;100668.75;5093194;28;8841;-61
2022/10/12 08:01:43;;;;;;;;;3.60;3.00;;;;;8.25;67.90;100677.84;5092652;28;8842;-61
2022/10/12 08:04:11;;;;;;;;;9.00;9.00;;;;;8.37;67.49;100671.81;5092196;28;8850;-61
2022/10/12 08:06:41;;;;;;;;;9.00;8.60;;;;;8.50;67.65;100671.00;5092142;28;8846;-61
2022/10/12 08:09:08;;;;;;;;;7.20;6.80;;;;;8.64;67.19;100671.03;5092124;28;8893;-61
2022/10/12 08:11:36;;;;;;;;;4.00;4.00;;;;;8.79;66.79;100675.41;5092319;28;8883;-61
2022/10/12 08:14:04;;;;;;;;;5.80;5.80;;;;;8.92;66.94;100680.84;5094884;28;8830;-60
2022/10/12 08:16:32;;;;;;;;;9.00;9.00;;;;;9.04;66.54;100677.44;5096136;28;8850;-61
2022/10/12 08:19:00;;;;;;;;;6.40;6.40;;;;;9.16;66.64;100677.53;5095009;28;8829;-64
2022/10/12 08:21:28;;;;;;;;;4.00;3.75;;;;;9.32;66.48;100674.75;5094585;28;8830;-61
2022/10/12 08:23:56;;;;;;;;;6.00;6.00;;;;;9.47;66.18;100674.66;5095222;28;8844;-61
2022/10/12 08:26:24;;;;;;;;;9.25;8.00;;;;;9.61;66.31;100671.97;5095275;28;8964;-61
2022/10/12 08:28:52;;;;;;;;;6.50;6.50;;;;;9.97;65.64;100671.38;5094586;28;8837;-62
2022/10/12 08:31:20;;;;;;;;;5.00;4.00;;;;;10.42;64.90;100657.72;5094518;28;8830;-61
2022/10/12 08:33:49;;;;;;;;;6.25;6.25;;;;;10.89;64.24;100663.31;5095775;28;8884;-61
2022/10/12 08:36:17;;;;;;;;;4.00;3.50;;;;;11.30;63.13;100656.78;5094779;28;8838;-61
2022/10/12 08:38:47;;;;;;;;;4.00;4.00;;;;;11.63;62.90;100646.41;5095457;28;8856;-61
2022/10/12 08:41:15;;;;;;;;;4.00;4.00;;;;;11.85;62.36;100643.88;5095417;28;8834;-59
2022/10/12 08:43:43;;;;;;;;;6.00;5.00;;;;;11.97;62.04;100648.28;5095328;28;8830;-59
2022/10/12 08:46:11;;;;;;;;;3.00;3.00;;;;;12.00;62.17;100645.41;5095550;28;8876;-59
2022/10/12 08:48:39;;;;;;;;;5.75;5.50;;;;;11.98;62.73;100642.84;5094629;28;8858;-58
2022/10/12 08:51:07;;;;;;;;;4.00;4.00;;;;;11.98;62.77;100637.50;5095420;28;8829;-58
2022/10/12 08:53:37;;;;;;;;;7.00;6.00;;;;;11.98;62.85;100638.47;5095219;28;9597;-58
2022/10/12 08:56:05;;;;;;;;;5.00;5.00;;;;;11.98;62.81;100639.31;5094167;28;8830;-59
2022/10/12 08:58:34;;;;;;;;;6.00;5.50;;;;;12.01;63.00;100644.44;5094229;28;8834;-58
2022/10/12 09:01:02;;;;;;;;;4.50;4.50;;;;;12.14;62.98;100638.06;5094086;28;8906;-59
2022/10/12 09:03:30;;;;;;;;;3.50;1.00;;;;;12.25;62.48;100637.25;5094501;28;8849;-58
2022/10/12 09:05:57;;;;;;;;;3.25;3.00;;;;;12.31;62.79;100647.47;5095025;28;8822;-58
2022/10/12 09:08:26;;;;;;;;;3.50;3.50;;;;;12.32;62.43;100646.50;5094522;28;8853;-59
2022/10/12 09:10:54;;;;;;;;;7.75;5.50;;;;;12.37;62.72;100644.31;5095087;28;8830;-59
2022/10/12 09:13:23;;;;;;;;;4.00;4.00;;;;;12.38;62.63;100644.22;5095615;28;8837;-59
2022/10/12 09:15:51;;;;;;;;;3.25;3.25;;;;;12.45;62.90;100639.28;5095886;28;8880;-59
2022/10/12 09:18:19;;;;;;;;;3.25;3.25;;;;;12.48;62.57;100634.56;5095560;28;8849;-59
2022/10/12 09:20:47;;;;;;;;;4.00;3.50;;;;;12.54;62.61;100634.06;5095809;28;9495;-58
2022/10/12 09:23:16;;;;;;;;;3.50;3.50;;;;;12.61;62.69;100639.81;5094988;28;8825;-59
2022/10/12 09:25:45;;;;;;;;;4.00;4.00;;;;;12.69;62.46;100632.88;5094616;28;8833;-58
2022/10/12 09:28:13;;;;;;;;;6.00;6.00;;;;;12.78;61.83;100632.19;5092590;28;8928;-59
2022/10/12 09:30:41;;;;;;;;;6.00;6.00;;;;;12.85;62.53;100630.72;5093863;28;8838;-59
2022/10/12 09:33:09;;;;;;;;;4.25;4.25;;;;;12.96;61.55;100633.44;5093931;28;9255;-59
2022/10/12 09:35:37;;;;;;;;;5.50;4.00;;;;;13.11;61.36;100628.72;5093889;28;8948;-58
2022/10/12 09:38:05;;;;;;;;;4.00;4.00;;;;;13.26;61.89;100631.03;5094576;28;8822;-59
2022/10/12 09:40:33;;;;;;;;;3.00;3.00;;;;;13.44;60.99;100632.22;5094552;28;8834;-59
2022/10/12 09:43:01;;;;;;;;;5.50;4.00;;;;;13.66;60.93;100626.00;5094541;28;8981;-59
2022/10/12 09:45:29;;;;;;;;;6.50;5.00;;;;;13.93;60.26;100621.03;5094342;28;8845;-59
2022/10/12 09:47:57;;;;;;;;;3.25;3.00;;;;;14.20;59.72;100618.81;5094655;28;8836;-59
2022/10/12 09:50:25;;;;;;;;;4.00;3.00;;;;;14.52;59.08;100614.25;5094244;28;8822;-59
2022/10/12 09:52:54;;;;;;;;;5.00;4.00;;;;;15.10;58.05;100616.28;5093560;28;8841;-59
2022/10/12 09:55:21;;;;;;;;;3.50;3.50;;;;;15.87;56.77;100605.69;5094134;28;8838;-59
2022/10/12 09:57:51;;;;;;;;;2.00;2.00;;;;;16.50;55.68;100600.63;5093915;28;8915;-59
2022/10/12 10:00:19;;;;;;;;;4.00;4.00;;;;;16.90;54.87;100601.25;5093893;28;9000;-60
2022/10/12 10:02:47;;;;;;;;;3.75;3.75;;;;;17.07;55.29;100602.31;5094316;28;8830;-59
2022/10/12 10:05:15;;;;;;;;;5.00;4.00;;;;;17.07;55.20;100597.78;5094148;28;8818;-62
2022/10/12 10:07:42;;;;;;;;;3.20;3.20;;;;;17.06;55.54;100597.94;5094143;28;9795;-62
2022/10/12 10:10:11;;;;;;;;;1.00;1.00;;;;;17.25;55.24;100593.31;5092709;28;8862;-58
2022/10/12 10:12:40;;;;;;;;;3.60;3.60;;;;;17.30;55.59;100593.72;5091676;28;8838;-59
2022/10/12 10:15:07;;;;;;;;;3.00;1.00;;;;;17.25;55.50;100593.31;5092025;28;8833;-59
2022/10/12 10:17:35;;;;;;;;;3.00;3.00;;;;;17.19;56.31;100587.69;5092623;28;8853;-61
2022/10/12 10:20:03;;;;;;;;;3.80;3.20;;;;;17.16;56.48;100593.38;5091941;28;8818;-59
2022/10/12 10:22:32;;;;;;;;;2.60;2.60;;;;;17.18;56.73;100597.63;5092196;28;8845;-59
2022/10/12 10:25:00;;;;;;;;;3.80;3.20;;;;;17.27;56.37;100598.56;5093000;28;8856;-59
2022/10/12 10:27:28;;;;;;;;;1.00;1.00;;;;;17.41;56.10;100596.28;5093797;28;8852;-59
2022/10/12 10:29:55;;;;;;;;;3.00;3.00;;;;;17.52;55.83;100596.06;5093857;28;8841;-59
2022/10/12 10:32:44;;;;;;;;;4.00;4.00;;;;;17.73;55.28;100588.56;5093619;28;8850;-59
2022/10/12 10:35:12;;;;;;;;;2.60;1.00;;;;;17.87;55.44;100590.75;5093474;28;8841;-59
2022/10/12 10:37:40;;;;;;;;;9.00;7.00;;;;;18.07;55.12;100592.28;5094360;28;8842;-59
2022/10/12 10:40:08;;;;;;;;;6.40;6.00;;;;;18.33;54.77;100589.69;5094089;28;8964;-59
2022/10/12 10:42:37;;;;;;;;;5.60;4.00;;;;;18.50;54.31;100589.69;5092639;28;8884;-59
2022/10/12 10:45:05;;;;;;;;;2.60;2.60;;;;;18.44;54.72;100590.31;5093059;28;8840;-60
2022/10/12 10:47:34;;;;;;;;;7.00;6.40;;;;;18.38;54.79;100585.53;5093613;28;8887;-59
2022/10/12 10:50:02;;;;;;;;;6.80;6.00;;;;;18.27;55.72;100588.44;5092920;28;8834;-59
2022/10/12 10:52:30;;;;;;;;;4.00;3.00;;;;;18.05;55.97;100598.81;5092639;28;8865;-59
2022/10/12 10:54:58;;;;;;;;;3.00;3.00;;;;;17.82;56.55;100594.88;5091829;28;8842;-59
2022/10/12 10:57:26;;;;;;;;;3.40;3.00;;;;;17.58;56.93;100595.47;5091081;28;8872;-59
2022/10/12 10:59:54;;;;;;;;;3.40;3.40;;;;;17.40;57.09;100596.41;5092509;28;8841;-59
2022/10/12 11:02:22;;;;;;;;;1.80;1.80;;;;;17.41;57.36;100593.59;5091954;28;8838;-59
2022/10/12 11:04:50;;;;;;;;;3.00;3.00;;;;;17.55;57.01;100584.16;5093029;28;8854;-59
2022/10/12 11:07:18;;;;;;;;;1.00;1.00;;;;;17.67;56.87;100586.47;5091916;28;8832;-59
2022/10/12 11:09:46;;;;;;;;;1.40;1.00;;;;;17.68;56.42;100582.78;5091077;28;8922;-59
2022/10/12 11:12:15;;;;;;;;;1.80;1.00;;;;;17.61;56.78;100579.00;5091826;28;8841;-59
2022/10/12 11:14:43;;;;;;;;;1.80;1.80;;;;;17.57;56.65;100577.63;5091221;28;8830;-60
2022/10/12 11:17:11;;;;;;;;;3.00;3.00;;;;;17.59;57.19;100569.38;5091153;28;8850;-60
2022/10/12 11:19:39;;;;;;;;;0.00;0.00;;;;;17.72;56.67;100569.84;5091505;28;8830;-60
2022/10/12 11:22:07;;;;;;;;;3.00;1.00;;;;;17.84;56.70;100569.47;5091670;28;9512;-60
2022/10/12 11:24:35;;;;;;;;;0.80;0.80;;;;;17.97;56.01;100574.50;5091839;28;8826;-60
2022/10/12 11:27:03;;;;;;;;;2.20;1.80;;;;;18.17;54.93;100558.03;5091413;28;8826;-60
2022/10/12 11:29:31;;;;;;;;;1.40;1.40;;;;;18.48;54.85;100559.31;5091540;28;8853;-60
2022/10/12 11:31:59;;;;;;;;;1.40;1.40;;;;;18.57;54.13;100555.69;5091333;28;8934;-60
2022/10/12 11:34:27;;;;;;;;;0.60;0.60;;;;;18.69;54.23;100559.81;5091860;28;8834;-59
2022/10/12 11:36:55;;;;;;;;;1.00;1.00;;;;;18.76;53.89;100546.53;5092572;28;8838;-60
2022/10/12 11:39:43;;;;;;;;;1.00;0.60;;;;;18.88;54.05;100540.69;5091471;28;9599;-60
2022/10/12 11:42:11;;;;;;;;;0.40;0.40;;;;;19.16;53.87;100544.03;5091559;28;8830;-59